logo
Search for airport 
image banner adimage banner adimage banner ad
image banner ad

ED0654 - Langenau

Located in Langenau, Germany

ICAO - , IATA -

Data provided by Airmate  

General information

Coordinates: N51°6'26" E12°54'56"
Elevation is 591 feet MSL.
 
View others Airports in Saxony

Operational data

Special qualification required
Current time UTC:
Current local time:
Weather at : EDAC - Leipzig-Altenburg Airport ( 32 km )
METAR: EDAC 301820Z AUTO 20005KT 9999 // OVC089/// 16/14 Q1004
TAF: TAF EDAC 301700Z 3018/3103 22004KT 9999 FEW012 BKN020 TEMPO 3018/3021 SHRA BKN012 BKN020CB BECMG 3021/3023 BKN009 TEMPO 3022/3103 3000 BR BKN004 PROB30 TEMPO 3023/3103 0700 FG BKN001
View NOTAMs / SUP AIP / TFR affecting this airport [VIEW]
Communications frequencies: [VIEW]

Runways:

Airport contact information

Address: Langenau Germany

Satellite view of ED0654